createdAt,value
2018-12-23T00:00:49.310Z,9.50
2018-12-23T00:03:21.626Z,8.47
2018-12-23T00:05:54.133Z,9.53
2018-12-23T00:08:26.421Z,8.43
2018-12-23T00:10:58.896Z,8.63
2018-12-23T00:13:31.224Z,6.97
2018-12-23T00:16:03.750Z,7.10
2018-12-23T00:18:36.153Z,7.47
2018-12-23T00:21:08.489Z,8.33
2018-12-23T00:23:41.048Z,8.23
2018-12-23T00:26:13.366Z,7.80
2018-12-23T00:28:45.896Z,8.77
2018-12-23T00:31:18.184Z,8.27
2018-12-23T00:33:50.708Z,7.97
2018-12-23T00:36:23.213Z,8.53
2018-12-23T00:38:55.687Z,8.37
2018-12-23T00:41:27.990Z,8.13
2018-12-23T00:44:00.723Z,8.50
2018-12-23T00:46:33.029Z,8.27
2018-12-23T00:49:05.785Z,7.97
2018-12-23T00:51:38.112Z,9.17
2018-12-23T00:54:10.492Z,8.83
2018-12-23T00:56:42.913Z,7.93
2018-12-23T00:59:15.274Z,8.17
2018-12-23T01:01:47.570Z,8.47
2018-12-23T01:04:19.884Z,8.90
2018-12-23T01:06:52.404Z,8.77
2018-12-23T01:09:24.725Z,9.20
2018-12-23T01:11:57.064Z,9.40
2018-12-23T01:14:29.952Z,9.87
2018-12-23T01:17:02.573Z,9.33
2018-12-23T01:19:34.895Z,8.70
2018-12-23T01:22:07.245Z,8.80
2018-12-23T01:24:39.596Z,8.60
2018-12-23T01:27:11.897Z,8.47
2018-12-23T01:32:47.419Z,8.53
2018-12-23T01:35:19.753Z,8.40
2018-12-23T01:37:52.073Z,8.70
2018-12-23T01:40:25.746Z,8.57
2018-12-23T01:42:58.050Z,8.43
2018-12-23T01:45:30.404Z,8.03
2018-12-23T01:48:02.727Z,8.37
2018-12-23T01:50:35.177Z,8.17
2018-12-23T01:53:07.463Z,7.63
2018-12-23T01:55:39.816Z,7.50
2018-12-23T01:58:12.149Z,8.47
2018-12-23T02:00:44.493Z,7.70
2018-12-23T02:03:17.003Z,8.63
2018-12-23T02:05:49.336Z,8.17
2018-12-23T02:08:21.668Z,8.33
2018-12-23T02:10:54.012Z,7.33
2018-12-23T02:13:26.321Z,8.00
2018-12-23T02:15:58.751Z,8.20
2018-12-23T02:18:31.197Z,7.90
2018-12-23T02:21:03.783Z,8.10
2018-12-23T02:23:36.109Z,8.23
2018-12-23T02:26:08.394Z,7.67
2018-12-23T02:28:40.725Z,8.00
2018-12-23T02:31:13.041Z,9.37
2018-12-23T02:33:45.362Z,9.63
2018-12-23T02:36:17.659Z,9.47
2018-12-23T02:38:50.056Z,8.33
2018-12-23T02:41:31.260Z,8.50
2018-12-23T02:43:56.735Z,8.33
2018-12-23T02:46:29.036Z,8.97
2018-12-23T02:49:01.362Z,9.20
2018-12-23T02:51:33.644Z,9.43
2018-12-23T02:54:05.990Z,8.93
2018-12-23T02:56:38.284Z,8.20
2018-12-23T02:59:10.735Z,8.83
2018-12-23T03:01:43.084Z,9.37
2018-12-23T03:04:15.416Z,9.57
2018-12-23T03:06:47.915Z,9.67
2018-12-23T03:09:20.237Z,9.93
2018-12-23T03:11:52.548Z,9.30
2018-12-23T03:14:24.857Z,9.60
2018-12-23T03:16:57.196Z,10.73
2018-12-23T03:19:29.587Z,9.37
2018-12-23T03:22:03.114Z,10.10
2018-12-23T03:24:35.440Z,9.17
2018-12-23T03:27:09.444Z,10.10
2018-12-23T03:29:41.980Z,9.07
2018-12-23T03:32:14.302Z,10.37
2018-12-23T03:34:46.618Z,10.37
2018-12-23T03:37:19.031Z,10.33
2018-12-23T03:39:51.411Z,9.00
2018-12-23T03:42:23.696Z,8.97
2018-12-23T03:44:56.004Z,10.30
2018-12-23T03:47:28.340Z,9.23
2018-12-23T03:50:00.657Z,9.50
2018-12-23T03:52:32.971Z,9.13
2018-12-23T03:55:05.399Z,8.80
2018-12-23T03:57:37.729Z,9.77
2018-12-23T04:00:10.060Z,9.47
2018-12-23T04:02:42.361Z,9.77
2018-12-23T04:05:14.689Z,8.50
2018-12-23T04:07:46.962Z,8.57
2018-12-23T04:10:19.301Z,9.13
2018-12-23T04:12:51.623Z,8.37
2018-12-23T04:15:23.962Z,9.47
2018-12-23T04:17:56.791Z,8.53
2018-12-23T04:20:29.118Z,9.17
2018-12-23T04:23:01.444Z,9.03
2018-12-23T04:25:33.749Z,9.10
2018-12-23T04:28:06.093Z,8.60
2018-12-23T04:30:38.411Z,7.90
2018-12-23T04:33:10.730Z,8.70
2018-12-23T04:35:43.025Z,8.43
2018-12-23T04:38:15.380Z,8.57
2018-12-23T04:40:47.771Z,8.10
2018-12-23T04:43:20.084Z,7.63
2018-12-23T04:45:52.386Z,8.40
2018-12-23T04:48:24.737Z,8.67
2018-12-23T04:50:57.158Z,8.13
2018-12-23T04:53:29.547Z,7.70
2018-12-23T04:56:01.855Z,8.03
2018-12-23T04:58:34.447Z,7.23
2018-12-23T05:01:06.942Z,7.37
2018-12-23T05:03:42.913Z,7.63
2018-12-23T05:06:13.595Z,7.13
2018-12-23T05:08:45.954Z,6.87
2018-12-23T05:11:18.306Z,7.67
2018-12-23T05:13:50.628Z,7.50
2018-12-23T05:16:22.915Z,7.53
2018-12-23T05:18:55.209Z,7.77
2018-12-23T05:21:27.569Z,7.83
2018-12-23T05:23:59.883Z,7.73
2018-12-23T05:26:32.197Z,9.03
2018-12-23T05:29:04.513Z,7.83
2018-12-23T05:31:36.809Z,7.87
2018-12-23T05:34:09.113Z,7.90
2018-12-23T05:36:41.381Z,8.10
2018-12-23T05:39:13.698Z,7.97
2018-12-23T05:41:46.000Z,7.70
2018-12-23T05:44:18.321Z,8.57
2018-12-23T05:46:50.648Z,8.67
2018-12-23T05:49:23.166Z,7.83
2018-12-23T05:51:55.453Z,7.87
2018-12-23T05:54:27.782Z,8.57
2018-12-23T05:57:00.087Z,8.20
2018-12-23T05:59:32.381Z,8.83
2018-12-23T06:02:04.840Z,8.33
2018-12-23T06:04:37.136Z,8.63
2018-12-23T06:07:09.455Z,7.53
2018-12-23T06:09:41.767Z,8.13
2018-12-23T06:12:14.097Z,7.87
2018-12-23T06:14:46.376Z,7.50
2018-12-23T06:17:20.079Z,8.00
2018-12-23T06:19:52.539Z,8.50
2018-12-23T06:22:24.870Z,7.37
2018-12-23T06:24:57.164Z,7.83
2018-12-23T06:27:29.488Z,8.67
2018-12-23T06:30:01.794Z,8.77
2018-12-23T06:32:34.121Z,8.83
2018-12-23T06:35:06.468Z,8.70
2018-12-23T06:37:38.754Z,8.50
2018-12-23T06:40:11.118Z,8.37
2018-12-23T06:42:43.519Z,9.07
2018-12-23T06:45:15.876Z,9.77
2018-12-23T06:47:48.200Z,9.70
2018-12-23T06:50:20.539Z,9.20
2018-12-23T06:52:52.847Z,8.77
2018-12-23T06:55:25.291Z,9.10
2018-12-23T06:57:57.566Z,9.30
2018-12-23T07:00:29.893Z,9.13
2018-12-23T07:03:02.279Z,9.30
2018-12-23T07:05:34.822Z,8.67
2018-12-23T07:08:07.108Z,7.57
2018-12-23T07:10:39.480Z,9.37
2018-12-23T07:13:11.751Z,8.43
2018-12-23T07:15:44.147Z,8.53
2018-12-23T07:18:16.408Z,8.60
2018-12-23T07:20:48.735Z,9.03
2018-12-23T07:23:21.063Z,8.23
2018-12-23T07:25:53.391Z,8.93
2018-12-23T07:28:26.023Z,8.37
2018-12-23T07:30:58.592Z,8.60
2018-12-23T07:33:30.903Z,8.40
2018-12-23T07:36:03.524Z,8.73
2018-12-23T07:38:35.806Z,9.70
2018-12-23T07:41:08.130Z,7.37
2018-12-23T07:43:40.546Z,8.63
2018-12-23T07:46:13.227Z,8.57
2018-12-23T07:48:45.549Z,8.00
2018-12-23T07:51:18.137Z,7.90
2018-12-23T07:53:50.540Z,6.83
2018-12-23T07:56:22.922Z,8.17
2018-12-23T07:58:55.227Z,7.17
2018-12-23T08:01:27.769Z,7.40
2018-12-23T08:04:00.111Z,4.97
2018-12-23T08:06:32.456Z,6.90
2018-12-23T08:09:05.872Z,7.47
2018-12-23T08:11:38.174Z,6.80
2018-12-23T08:14:12.525Z,7.53
2018-12-23T08:16:44.928Z,7.33
2018-12-23T08:19:17.260Z,7.03
2018-12-23T08:21:49.567Z,6.67
2018-12-23T08:24:21.996Z,7.40
2018-12-23T08:26:54.299Z,7.27
2018-12-23T08:29:26.623Z,7.30
2018-12-23T08:31:58.894Z,6.70
2018-12-23T08:34:31.240Z,7.10
2018-12-23T08:37:03.642Z,7.93
2018-12-23T08:39:35.968Z,7.70
2018-12-23T08:42:08.304Z,7.73
2018-12-23T08:44:40.692Z,7.70
2018-12-23T08:47:12.993Z,6.57
2018-12-23T08:49:45.569Z,7.00
2018-12-23T08:52:17.874Z,6.80
2018-12-23T08:54:50.209Z,6.80
2018-12-23T08:57:22.488Z,6.90
2018-12-23T08:59:54.812Z,7.40
2018-12-23T09:02:27.218Z,5.77
2018-12-23T09:04:59.600Z,6.27
2018-12-23T09:07:31.899Z,6.07
2018-12-23T09:10:05.023Z,6.63
2018-12-23T09:12:37.356Z,5.43
2018-12-23T09:15:09.662Z,5.60
2018-12-23T09:17:42.109Z,5.30
2018-12-23T09:20:14.631Z,6.30
2018-12-23T09:22:46.927Z,5.97
2018-12-23T09:25:19.298Z,6.33
2018-12-23T09:27:51.590Z,5.37
2018-12-23T09:30:24.062Z,6.53
2018-12-23T09:32:56.331Z,5.50
2018-12-23T09:35:28.837Z,6.70
2018-12-23T09:38:01.666Z,6.13
2018-12-23T09:40:34.327Z,6.60
2018-12-23T09:43:06.668Z,6.20
2018-12-23T09:45:39.374Z,6.53
2018-12-23T09:48:11.721Z,6.30
2018-12-23T09:50:44.207Z,5.37
2018-12-23T09:53:16.516Z,5.90
2018-12-23T09:55:48.848Z,5.43
2018-12-23T09:58:21.315Z,4.73
2018-12-23T10:00:53.735Z,5.83
2018-12-23T10:03:26.065Z,5.50
2018-12-23T10:05:59.128Z,5.50
2018-12-23T10:08:31.490Z,5.33
2018-12-23T10:11:03.910Z,5.63
2018-12-23T10:13:36.344Z,5.07
2018-12-23T10:16:08.652Z,5.43
2018-12-23T10:18:40.992Z,5.50
2018-12-23T10:21:13.367Z,5.53
2018-12-23T10:23:45.659Z,4.07
2018-12-23T10:26:18.216Z,5.37
2018-12-23T10:28:50.627Z,5.00
2018-12-23T10:31:22.991Z,5.43
2018-12-23T10:33:55.690Z,5.53
2018-12-23T10:36:28.140Z,6.03
2018-12-23T10:39:00.529Z,5.17
2018-12-23T10:41:32.898Z,5.60
2018-12-23T10:44:05.492Z,5.37
2018-12-23T10:46:37.930Z,5.63
2018-12-23T10:49:10.285Z,5.60
2018-12-23T10:51:43.467Z,4.90
2018-12-23T10:54:15.865Z,5.43
2018-12-23T10:56:48.158Z,4.90
2018-12-23T10:59:20.816Z,5.27
2018-12-23T11:01:53.211Z,4.77
2018-12-23T11:04:25.601Z,4.87
2018-12-23T11:06:58.079Z,4.20
2018-12-23T11:09:30.474Z,4.10
2018-12-23T11:12:02.888Z,4.77
2018-12-23T11:14:35.239Z,4.47
2018-12-23T11:17:07.539Z,4.43
2018-12-23T11:19:40.040Z,4.43
2018-12-23T11:22:12.349Z,4.97
2018-12-23T11:24:44.686Z,4.57
2018-12-23T11:27:17.089Z,4.37
2018-12-23T11:29:49.427Z,4.17
2018-12-23T11:32:22.508Z,4.47
2018-12-23T11:34:54.882Z,3.83
2018-12-23T11:37:27.196Z,4.67
2018-12-23T11:39:59.529Z,4.30
2018-12-23T11:42:32.011Z,4.53
2018-12-23T11:45:05.147Z,4.20
2018-12-23T11:47:37.553Z,4.20
2018-12-23T11:50:10.155Z,4.80
2018-12-23T11:52:42.519Z,4.83
2018-12-23T11:55:14.957Z,4.80
2018-12-23T11:57:47.277Z,4.77
2018-12-23T12:00:19.652Z,5.57
2018-12-23T12:02:51.946Z,5.10
2018-12-23T12:05:24.278Z,5.70
2018-12-23T12:07:56.730Z,6.00
2018-12-23T12:10:29.078Z,5.57
2018-12-23T12:13:01.502Z,6.10
2018-12-23T12:15:33.987Z,5.80
2018-12-23T12:18:06.552Z,5.00
2018-12-23T12:20:38.847Z,5.97
2018-12-23T12:23:11.265Z,5.80
2018-12-23T12:25:43.786Z,4.97
2018-12-23T12:28:16.368Z,5.37
2018-12-23T12:30:48.780Z,5.97
2018-12-23T12:33:21.179Z,5.53
2018-12-23T12:35:53.651Z,5.60
2018-12-23T12:38:26.015Z,5.77
2018-12-23T12:40:58.776Z,5.90
2018-12-23T12:43:31.197Z,5.53
2018-12-23T12:46:04.041Z,4.70
2018-12-23T12:48:36.455Z,4.70
2018-12-23T12:51:08.999Z,4.10
2018-12-23T12:53:41.331Z,4.27
2018-12-23T12:56:14.053Z,4.97
2018-12-23T12:58:46.650Z,4.00
2018-12-23T13:01:19.486Z,4.53
2018-12-23T13:03:52.091Z,4.17
2018-12-23T13:06:24.496Z,3.37
2018-12-23T13:09:00.624Z,3.33
2018-12-23T13:11:33.374Z,2.33
2018-12-23T13:14:05.682Z,2.93
2018-12-23T13:16:38.050Z,2.73
2018-12-23T13:19:10.344Z,2.30
2018-12-23T13:21:42.771Z,2.30
2018-12-23T13:24:15.234Z,2.90
2018-12-23T13:26:47.690Z,2.80
2018-12-23T13:29:20.213Z,2.73
2018-12-23T13:31:52.547Z,2.70
2018-12-23T13:34:24.878Z,2.70
2018-12-23T13:36:57.468Z,2.70
2018-12-23T13:39:29.801Z,3.17
2018-12-23T13:42:43.243Z,3.17
2018-12-23T13:45:27.203Z,2.43
2018-12-23T13:48:14.958Z,3.50
2018-12-23T13:52:03.023Z,3.40
2018-12-23T13:54:46.907Z,3.70
2018-12-23T13:57:38.779Z,5.00
2018-12-23T14:00:22.579Z,5.87
2018-12-23T14:03:21.618Z,6.40
2018-12-23T14:06:12.927Z,7.27
2018-12-23T14:08:58.302Z,7.67
2018-12-23T14:12:02.538Z,7.53
2018-12-23T14:14:35.009Z,7.40
2018-12-23T14:17:07.371Z,8.13
2018-12-23T14:19:39.783Z,6.87
2018-12-23T14:22:12.152Z,8.43
2018-12-23T14:24:44.475Z,8.00
2018-12-23T14:27:16.803Z,8.00
2018-12-23T14:29:49.126Z,8.23
2018-12-23T14:32:21.533Z,8.63
2018-12-23T14:34:53.891Z,8.77
2018-12-23T14:37:26.653Z,8.73
2018-12-23T14:39:58.952Z,9.00
2018-12-23T14:42:31.498Z,8.13
2018-12-23T14:45:04.523Z,8.77
2018-12-23T14:47:37.265Z,8.50
2018-12-23T14:50:09.689Z,8.43
2018-12-23T14:52:42.411Z,8.53
2018-12-23T14:55:14.710Z,7.90
2018-12-23T14:57:47.011Z,7.90
2018-12-23T15:00:19.331Z,7.23
2018-12-23T15:02:51.770Z,6.27
2018-12-23T15:05:24.075Z,7.00
2018-12-23T15:07:56.428Z,6.90
2018-12-23T15:10:28.762Z,7.57
2018-12-23T15:13:01.167Z,6.77
2018-12-23T15:15:33.467Z,6.70
2018-12-23T15:18:05.827Z,6.70
2018-12-23T15:20:38.161Z,7.10
2018-12-23T15:23:11.251Z,6.80
2018-12-23T15:25:43.588Z,7.37
2018-12-23T15:28:16.214Z,6.73
2018-12-23T15:30:49.568Z,7.57
2018-12-23T15:33:21.955Z,7.10
2018-12-23T15:35:54.298Z,7.23
2018-12-23T15:38:26.645Z,7.40
2018-12-23T15:40:58.927Z,7.57
2018-12-23T15:43:31.243Z,8.50
2018-12-23T15:46:03.835Z,8.93
2018-12-23T15:48:36.434Z,8.70
2018-12-23T15:51:08.734Z,8.77
2018-12-23T15:53:41.251Z,9.83
2018-12-23T15:56:13.541Z,8.47
2018-12-23T15:58:46.465Z,9.03
2018-12-23T16:01:18.761Z,10.23
2018-12-23T16:03:51.239Z,9.60
2018-12-23T16:06:23.551Z,8.20
2018-12-23T16:08:56.716Z,9.47
2018-12-23T16:11:29.226Z,9.47
2018-12-23T16:14:01.753Z,8.87
2018-12-23T16:16:34.047Z,8.97
2018-12-23T16:19:07.296Z,8.40
2018-12-23T16:21:40.367Z,9.37
2018-12-23T16:24:12.662Z,8.20
2018-12-23T16:26:45.148Z,8.70
2018-12-23T16:29:17.432Z,9.83
2018-12-23T16:31:49.730Z,9.23
2018-12-23T16:34:22.357Z,8.60
2018-12-23T16:36:54.675Z,8.87
2018-12-23T16:39:27.304Z,7.93
2018-12-23T16:41:59.590Z,9.23
2018-12-23T16:44:32.799Z,8.27
2018-12-23T16:47:05.257Z,7.63
2018-12-23T16:49:37.834Z,7.63
2018-12-23T16:52:10.124Z,7.43
2018-12-23T16:54:42.653Z,7.63
2018-12-23T16:57:14.943Z,8.23
2018-12-23T16:59:47.392Z,8.17
2018-12-23T17:02:19.809Z,8.47
2018-12-23T17:04:52.282Z,8.53
2018-12-23T17:07:24.588Z,8.73
2018-12-23T17:09:56.915Z,8.70
2018-12-23T17:12:29.272Z,7.97
2018-12-23T17:15:01.650Z,8.40
2018-12-23T17:17:33.994Z,9.10
2018-12-23T17:20:09.280Z,9.13
2018-12-23T17:22:41.581Z,9.03
2018-12-23T17:25:13.993Z,9.03
2018-12-23T17:27:46.301Z,9.60
2018-12-23T17:30:18.619Z,10.77
2018-12-23T17:32:50.944Z,9.83
2018-12-23T17:35:23.256Z,10.30
2018-12-23T17:37:55.572Z,9.63
2018-12-23T17:40:27.884Z,10.03
2018-12-23T17:43:00.204Z,10.10
2018-12-23T17:45:32.595Z,9.87
2018-12-23T17:48:04.972Z,8.40
2018-12-23T17:50:37.296Z,10.60
2018-12-23T17:53:09.843Z,10.00
2018-12-23T17:55:42.241Z,10.57
2018-12-23T17:58:14.560Z,10.33
2018-12-23T18:00:46.902Z,9.97
2018-12-23T18:03:19.364Z,9.77
2018-12-23T18:05:51.685Z,9.57
2018-12-23T18:08:24.408Z,10.07
2018-12-23T18:10:56.764Z,10.77
2018-12-23T18:13:29.239Z,9.83
2018-12-23T18:16:02.026Z,9.60
2018-12-23T18:18:34.584Z,10.27
2018-12-23T18:21:06.900Z,10.87
2018-12-23T18:23:39.433Z,9.93
2018-12-23T18:26:11.733Z,10.60
2018-12-23T18:28:44.187Z,10.30
2018-12-23T18:31:16.733Z,9.93
2018-12-23T18:33:49.043Z,11.07
2018-12-23T18:36:21.608Z,10.83
2018-12-23T18:38:53.972Z,10.80
2018-12-23T18:41:26.522Z,10.50
2018-12-23T18:43:58.826Z,11.03
2018-12-23T18:46:31.376Z,11.17
2018-12-23T18:49:03.780Z,9.90
2018-12-23T18:51:36.642Z,9.57
2018-12-23T18:54:09.084Z,11.17
2018-12-23T18:56:44.708Z,11.57
2018-12-23T18:59:18.934Z,10.20
2018-12-23T19:01:58.738Z,10.17
2018-12-23T19:04:32.595Z,11.40
2018-12-23T19:07:06.229Z,9.10
2018-12-23T19:09:46.565Z,10.73
2018-12-23T19:14:40.942Z,9.47
2018-12-23T19:17:32.381Z,10.43
2018-12-23T19:20:19.037Z,10.20
2018-12-23T19:23:31.475Z,10.10
2018-12-23T19:28:21.876Z,9.87
2018-12-23T19:31:11.179Z,10.30
2018-12-23T19:34:54.891Z,10.10
2018-12-23T19:37:39.653Z,10.23
2018-12-23T19:40:24.990Z,10.57
2018-12-23T19:43:12.556Z,9.90
2018-12-23T19:46:02.299Z,11.07
2018-12-23T19:50:50.464Z,9.87
2018-12-23T19:53:34.310Z,10.37
2018-12-23T19:59:28.447Z,8.83
2018-12-23T20:02:12.140Z,9.43
2018-12-23T20:04:57.795Z,9.87
2018-12-23T20:07:49.036Z,9.80
2018-12-23T20:10:45.879Z,10.13
2018-12-23T20:13:29.624Z,10.40
2018-12-23T20:16:15.334Z,11.13
2018-12-23T20:19:29.996Z,10.17
2018-12-23T20:22:14.627Z,10.03
2018-12-23T20:25:02.768Z,10.13
2018-12-23T20:27:47.156Z,10.17
2018-12-23T20:32:32.277Z,10.17
2018-12-23T20:35:31.848Z,9.53
2018-12-23T20:38:17.369Z,9.23
2018-12-23T20:41:11.901Z,9.23
2018-12-23T20:43:54.535Z,9.73
2018-12-23T20:47:50.625Z,10.13
2018-12-23T20:50:36.944Z,10.23
2018-12-23T20:53:49.491Z,10.80
2018-12-23T20:58:49.092Z,9.97
2018-12-23T21:01:37.613Z,9.83
2018-12-23T21:04:25.939Z,9.57
2018-12-23T21:07:11.630Z,9.73
2018-12-23T21:10:00.839Z,9.87
2018-12-23T21:13:44.840Z,9.20
2018-12-23T21:16:44.065Z,9.63
2018-12-23T21:19:30.491Z,9.20
2018-12-23T21:22:14.830Z,8.83
2018-12-23T21:25:32.112Z,8.80
2018-12-23T21:30:22.112Z,8.10
2018-12-23T21:33:05.802Z,8.30
2018-12-23T21:36:26.208Z,8.53
2018-12-23T21:39:09.987Z,7.63
2018-12-23T21:44:00.572Z,8.47
2018-12-23T21:47:25.809Z,8.93
2018-12-23T21:50:12.774Z,8.47
2018-12-23T21:53:00.886Z,9.23
2018-12-23T21:55:50.497Z,8.57
2018-12-23T21:58:34.282Z,9.07
2018-12-23T22:02:17.391Z,8.93
2018-12-23T22:06:10.948Z,8.47
2018-12-23T22:08:50.753Z,6.80
2018-12-23T22:13:55.325Z,7.73
2018-12-23T22:16:27.646Z,7.57
2018-12-23T22:18:59.974Z,7.80
2018-12-23T22:21:32.522Z,7.67
2018-12-23T22:24:04.892Z,7.07
2018-12-23T22:26:37.274Z,7.57
2018-12-23T22:29:09.637Z,8.00
2018-12-23T22:31:41.914Z,7.43
2018-12-23T22:34:14.239Z,8.40
2018-12-23T22:36:46.557Z,7.50
2018-12-23T22:40:05.247Z,8.00
2018-12-23T22:42:50.328Z,7.83
2018-12-23T22:45:35.754Z,8.47
2018-12-23T22:48:20.835Z,8.77
2018-12-23T22:51:05.490Z,9.37
2018-12-23T22:53:50.828Z,8.87
2018-12-23T22:56:36.000Z,9.13
2018-12-23T22:59:21.021Z,9.37
2018-12-23T23:02:05.959Z,9.17
2018-12-23T23:04:50.621Z,6.60
2018-12-23T23:07:35.592Z,6.57
2018-12-23T23:10:20.561Z,5.33
2018-12-23T23:13:05.870Z,6.03
2018-12-23T23:15:50.911Z,5.70
2018-12-23T23:18:36.770Z,5.33
2018-12-23T23:21:21.423Z,5.10
2018-12-23T23:24:06.411Z,5.33
2018-12-23T23:26:51.218Z,5.30
2018-12-23T23:29:36.343Z,4.53
2018-12-23T23:32:21.311Z,5.00
2018-12-23T23:35:06.462Z,4.63
2018-12-23T23:37:51.581Z,4.57
2018-12-23T23:43:40.366Z,3.90
2018-12-23T23:46:25.215Z,4.03
2018-12-23T23:49:10.373Z,4.80
2018-12-23T23:51:55.311Z,4.10
2018-12-23T23:54:40.381Z,4.13
2018-12-23T23:57:25.290Z,4.20
